createdAt,value
2022-11-02T00:01:27.058Z,14.17
2022-11-02T00:03:55.191Z,14.13
2022-11-02T00:06:22.972Z,14.18
2022-11-02T00:08:51.044Z,14.09
2022-11-02T00:11:20.142Z,14.16
2022-11-02T00:13:47.935Z,14.20
2022-11-02T00:16:19.425Z,14.27
2022-11-02T00:18:53.202Z,14.36
2022-11-02T00:21:21.923Z,14.32
2022-11-02T00:23:50.511Z,14.36
2022-11-02T00:26:22.906Z,14.54
2022-11-02T00:28:52.784Z,14.52
2022-11-02T00:31:21.294Z,14.57
2022-11-02T00:33:52.021Z,14.65
2022-11-02T00:36:20.483Z,14.66
2022-11-02T00:38:51.089Z,14.53
2022-11-02T00:41:21.997Z,14.57
2022-11-02T00:43:49.791Z,14.58
2022-11-02T00:46:20.350Z,14.55
2022-11-02T00:48:49.682Z,14.55
2022-11-02T00:51:18.253Z,14.56
2022-11-02T00:53:46.447Z,14.54
2022-11-02T00:56:15.293Z,14.60
2022-11-02T00:58:44.892Z,14.56
2022-11-02T01:01:13.446Z,14.61
2022-11-02T01:03:41.378Z,14.63
2022-11-02T01:06:14.411Z,14.65
2022-11-02T01:08:42.753Z,14.60
2022-11-02T01:11:13.296Z,14.56
2022-11-02T01:13:41.845Z,14.50
2022-11-02T01:16:12.998Z,14.50
2022-11-02T01:18:41.971Z,14.54
2022-11-02T01:21:10.647Z,14.61
2022-11-02T01:23:40.533Z,14.68
2022-11-02T01:26:10.457Z,14.70
2022-11-02T01:28:39.316Z,14.64
2022-11-02T01:31:08.822Z,14.60
2022-11-02T01:33:44.132Z,14.72
2022-11-02T01:36:13.826Z,14.61
2022-11-02T01:38:41.895Z,14.59
2022-11-02T01:41:12.102Z,14.55
2022-11-02T01:43:43.515Z,14.61
2022-11-02T01:46:21.277Z,14.50
2022-11-02T01:48:56.763Z,14.50
2022-11-02T01:51:31.254Z,14.45
2022-11-02T01:54:07.188Z,14.35
2022-11-02T01:56:38.200Z,14.36
2022-11-02T01:59:13.670Z,14.26
2022-11-02T02:01:41.624Z,14.25
2022-11-02T02:04:13.098Z,14.19
2022-11-02T02:06:43.978Z,14.15
2022-11-02T02:09:14.605Z,14.12
2022-11-02T02:11:44.734Z,14.12
2022-11-02T02:14:16.443Z,14.14
2022-11-02T02:17:08.346Z,14.09
2022-11-02T02:19:53.442Z,14.10
2022-11-02T02:22:47.220Z,14.04
2022-11-02T02:25:59.952Z,14.11
2022-11-02T02:28:41.419Z,14.10
2022-11-02T02:31:20.141Z,14.01
2022-11-02T02:33:56.918Z,14.07
2022-11-02T02:36:31.976Z,14.03
2022-11-02T02:39:10.166Z,14.03
2022-11-02T02:41:44.963Z,14.02
2022-11-02T02:44:21.845Z,14.04
2022-11-02T02:47:00.504Z,14.02
2022-11-02T02:49:37.902Z,14.01
2022-11-02T02:52:08.376Z,14.02
2022-11-02T02:54:41.591Z,14.03
2022-11-02T02:57:16.485Z,14.02
2022-11-02T02:59:50.620Z,14.04
2022-11-02T03:02:25.515Z,14.08
2022-11-02T03:04:54.239Z,14.07
2022-11-02T03:07:31.154Z,14.04
2022-11-02T03:10:16.822Z,14.03
2022-11-02T03:12:57.195Z,14.08
2022-11-02T03:15:38.239Z,14.05
2022-11-02T03:18:18.229Z,14.13
2022-11-02T03:21:03.048Z,14.13
2022-11-02T03:23:37.343Z,14.11
2022-11-02T03:26:12.672Z,14.25
2022-11-02T03:29:00.575Z,14.33
2022-11-02T03:31:39.968Z,14.34
2022-11-02T03:34:24.146Z,14.43
2022-11-02T03:37:01.324Z,14.58
2022-11-02T03:39:35.284Z,14.63
2022-11-02T03:42:05.878Z,14.69
2022-11-02T03:44:40.933Z,14.82
2022-11-02T03:47:17.311Z,14.90
2022-11-02T03:49:50.571Z,14.89
2022-11-02T03:52:25.732Z,14.94
2022-11-02T03:55:04.838Z,14.87
2022-11-02T03:57:42.713Z,14.92
2022-11-02T04:00:15.571Z,14.94
2022-11-02T04:02:52.600Z,14.94
2022-11-02T04:05:26.861Z,14.86
2022-11-02T04:08:15.463Z,14.90
2022-11-02T04:11:03.610Z,14.91
2022-11-02T04:13:50.634Z,14.76
2022-11-02T04:16:24.904Z,14.75
2022-11-02T04:19:15.847Z,14.67
2022-11-02T04:22:04.534Z,14.60
2022-11-02T04:25:03.441Z,14.62
2022-11-02T04:27:33.391Z,14.60
2022-11-02T04:30:01.790Z,14.67
2022-11-02T04:32:56.823Z,14.69
2022-11-02T04:35:29.128Z,14.61
2022-11-02T04:38:16.157Z,14.60
2022-11-02T04:40:45.925Z,14.59
2022-11-02T04:43:15.813Z,14.60
2022-11-02T04:45:44.866Z,14.61
2022-11-02T04:48:13.089Z,14.58
2022-11-02T04:50:42.202Z,14.55
2022-11-02T04:53:10.533Z,14.52
2022-11-02T04:55:40.109Z,14.53
2022-11-02T04:58:09.274Z,14.37
2022-11-02T05:00:40.075Z,14.40
2022-11-02T05:03:12.375Z,14.37
2022-11-02T05:05:43.644Z,14.38
2022-11-02T05:08:11.934Z,14.37
2022-11-02T05:10:40.302Z,14.36
2022-11-02T05:13:10.407Z,14.20
2022-11-02T05:15:39.833Z,14.24
2022-11-02T05:18:08.915Z,14.14
2022-11-02T05:20:37.288Z,14.10
2022-11-02T05:23:09.563Z,14.08
2022-11-02T05:25:39.134Z,14.09
2022-11-02T05:28:07.158Z,14.03
2022-11-02T05:30:37.330Z,14.01
2022-11-02T05:33:05.827Z,14.11
2022-11-02T05:35:34.171Z,14.01
2022-11-02T05:38:02.593Z,13.98
2022-11-02T05:40:33.648Z,13.95
2022-11-02T05:43:05.850Z,13.94
2022-11-02T05:45:36.758Z,13.95
2022-11-02T05:48:08.163Z,13.92
2022-11-02T05:50:35.966Z,13.96
2022-11-02T05:53:05.337Z,14.00
2022-11-02T05:55:38.431Z,13.96
2022-11-02T05:58:06.501Z,13.98
2022-11-02T06:00:34.280Z,14.02
2022-11-02T06:03:02.406Z,14.02
2022-11-02T06:05:31.025Z,14.02
2022-11-02T06:07:59.597Z,14.02
2022-11-02T06:10:27.990Z,14.08
2022-11-02T06:12:59.008Z,14.11
2022-11-02T06:15:27.532Z,14.18
2022-11-02T06:17:55.387Z,14.18
2022-11-02T06:20:24.265Z,14.20
2022-11-02T06:22:53.094Z,14.18
2022-11-02T06:25:21.014Z,14.07
2022-11-02T06:27:53.011Z,14.04
2022-11-02T06:30:23.707Z,13.99
2022-11-02T06:32:54.082Z,13.93
2022-11-02T06:35:23.317Z,13.84
2022-11-02T06:37:51.753Z,13.84
2022-11-02T06:40:22.675Z,13.81
2022-11-02T06:43:15.494Z,13.76
2022-11-02T06:45:46.611Z,13.74
2022-11-02T06:48:14.892Z,13.70
2022-11-02T06:50:43.065Z,13.76
2022-11-02T06:53:11.484Z,13.69
2022-11-02T06:55:39.377Z,13.67
2022-11-02T06:58:07.355Z,13.70
2022-11-02T07:00:35.342Z,13.73
2022-11-02T07:03:07.240Z,13.72
2022-11-02T07:05:36.358Z,13.72
2022-11-02T07:08:05.520Z,13.71
2022-11-02T07:10:37.350Z,13.67
2022-11-02T07:13:05.547Z,13.65
2022-11-02T07:15:33.556Z,13.68
2022-11-02T07:18:02.036Z,13.61
2022-11-02T07:20:31.218Z,13.67
2022-11-02T07:23:01.993Z,13.75
2022-11-02T07:25:32.021Z,13.85
2022-11-02T07:28:01.763Z,13.87
2022-11-02T07:30:31.912Z,13.97
2022-11-02T07:33:00.515Z,14.07
2022-11-02T07:35:28.431Z,14.10
2022-11-02T07:37:59.896Z,14.20
2022-11-02T07:40:29.222Z,14.37
2022-11-02T07:42:59.151Z,14.45
2022-11-02T07:45:40.275Z,14.51
2022-11-02T07:48:08.516Z,14.31
2022-11-02T07:50:36.992Z,14.37
2022-11-02T07:53:09.484Z,14.41
2022-11-02T07:55:37.249Z,14.39
2022-11-02T07:58:09.151Z,14.38
2022-11-02T08:00:39.445Z,14.25
2022-11-02T08:03:11.262Z,14.40
2022-11-02T08:05:42.667Z,14.37
2022-11-02T08:08:14.463Z,14.37
2022-11-02T08:10:44.195Z,14.37
2022-11-02T08:13:14.820Z,14.50
2022-11-02T08:15:42.886Z,14.46
2022-11-02T08:18:14.942Z,14.43
2022-11-02T08:20:43.770Z,14.43
2022-11-02T08:23:14.397Z,14.57
2022-11-02T08:25:45.530Z,14.43
2022-11-02T08:28:16.726Z,14.61
2022-11-02T08:30:44.648Z,14.51
2022-11-02T08:33:15.751Z,14.33
2022-11-02T08:35:45.759Z,14.46
2022-11-02T08:38:15.403Z,14.46
2022-11-02T08:40:44.827Z,14.46
2022-11-02T08:43:14.733Z,14.47
2022-11-02T08:48:33.632Z,14.49
2022-11-02T08:51:01.426Z,14.61
2022-11-02T08:53:30.791Z,14.47
2022-11-02T08:55:59.267Z,14.57
2022-11-02T08:58:27.557Z,14.61
2022-11-02T09:00:57.586Z,14.65
2022-11-02T09:03:27.328Z,14.70
2022-11-02T09:06:02.918Z,14.68
2022-11-02T09:08:33.083Z,14.86
2022-11-02T09:11:03.597Z,15.08
2022-11-02T09:13:31.704Z,15.12
2022-11-02T09:16:00.650Z,14.90
2022-11-02T09:18:28.867Z,15.33
2022-11-02T09:20:57.205Z,15.25
2022-11-02T09:23:25.094Z,15.01
2022-11-02T09:25:54.184Z,15.14
2022-11-02T09:28:22.025Z,15.10
2022-11-02T09:30:50.230Z,15.25
2022-11-02T09:33:19.272Z,15.41
2022-11-02T09:35:49.426Z,15.21
2022-11-02T09:38:18.488Z,15.20
2022-11-02T09:41:06.240Z,15.49
2022-11-02T09:43:49.526Z,15.18
2022-11-02T09:46:24.005Z,15.18
2022-11-02T09:48:56.592Z,15.18
2022-11-02T09:51:29.535Z,15.25
2022-11-02T09:54:13.121Z,15.15
2022-11-02T09:56:47.348Z,15.04
2022-11-02T09:59:19.718Z,15.54
2022-11-02T10:02:01.188Z,16.07
2022-11-02T10:05:10.437Z,16.00
2022-11-02T10:08:15.760Z,16.40
2022-11-02T10:11:07.736Z,16.35
2022-11-02T10:13:45.549Z,16.19
2022-11-02T10:16:20.737Z,16.36
2022-11-02T10:18:53.276Z,16.66
2022-11-02T10:21:27.290Z,16.65
2022-11-02T10:23:57.985Z,16.70
2022-11-02T10:26:30.580Z,16.70
2022-11-02T10:29:12.078Z,16.60
2022-11-02T10:31:39.973Z,16.29
2022-11-02T10:34:22.433Z,16.56
2022-11-02T10:37:09.585Z,16.91
2022-11-02T10:39:51.361Z,16.71
2022-11-02T10:42:49.375Z,16.59
2022-11-02T10:45:48.086Z,16.28
2022-11-02T10:48:33.898Z,16.47
2022-11-02T10:51:08.799Z,16.80
2022-11-02T10:53:42.518Z,17.35
2022-11-02T10:56:17.534Z,17.77
2022-11-02T10:58:59.082Z,18.21
2022-11-02T11:01:30.587Z,17.77
2022-11-02T11:04:02.099Z,17.64
2022-11-02T11:06:35.772Z,17.92
2022-11-02T11:09:07.423Z,17.99
2022-11-02T11:11:38.561Z,17.76
2022-11-02T11:20:24.834Z,16.72
2022-11-02T11:23:20.513Z,16.58
2022-11-02T11:26:02.464Z,16.34
2022-11-02T11:28:40.423Z,16.59
2022-11-02T11:31:16.273Z,16.45
2022-11-02T11:33:50.537Z,16.22
2022-11-02T11:36:30.379Z,15.92
2022-11-02T11:39:02.303Z,15.85
2022-11-02T11:41:32.697Z,15.82
2022-11-02T11:44:03.145Z,15.95
2022-11-02T11:46:44.605Z,15.80
2022-11-02T11:49:41.506Z,15.99
2022-11-02T11:52:25.614Z,15.95
2022-11-02T11:54:58.185Z,15.96
2022-11-02T11:57:31.807Z,16.17
2022-11-02T12:00:05.558Z,16.17
2022-11-02T12:02:42.755Z,15.95
2022-11-02T12:05:18.412Z,16.11
2022-11-02T12:08:27.869Z,16.15
2022-11-02T12:11:25.965Z,16.28
2022-11-02T12:14:20.740Z,16.20
2022-11-02T12:17:17.876Z,16.29
2022-11-02T12:20:10.147Z,16.72
2022-11-02T12:22:53.753Z,16.86
2022-11-02T12:25:43.600Z,16.91
2022-11-02T12:28:33.171Z,16.65
2022-11-02T12:31:19.629Z,16.80
2022-11-02T12:34:05.681Z,16.80
2022-11-02T12:37:31.234Z,17.16
2022-11-02T12:40:05.303Z,17.59
2022-11-02T12:42:43.113Z,18.24
2022-11-02T12:45:30.830Z,18.53
2022-11-02T12:48:05.079Z,19.05
2022-11-02T12:50:55.782Z,19.17
2022-11-02T12:53:48.913Z,19.26
2022-11-02T12:56:26.995Z,19.14
2022-11-02T12:58:58.783Z,19.17
2022-11-02T13:01:35.429Z,19.41
2022-11-02T13:04:18.525Z,19.19
2022-11-02T13:06:51.835Z,19.37
2022-11-02T13:09:28.354Z,19.76
2022-11-02T13:12:05.899Z,19.33
2022-11-02T13:14:41.765Z,18.84
2022-11-02T13:17:18.091Z,18.43
2022-11-02T13:19:54.501Z,18.05
2022-11-02T13:22:31.038Z,18.17
2022-11-02T13:25:17.422Z,18.13
2022-11-02T13:27:55.248Z,17.78
2022-11-02T13:30:23.144Z,17.65
2022-11-02T13:33:01.866Z,17.69
2022-11-02T13:35:35.546Z,17.79
2022-11-02T13:38:18.430Z,17.92
2022-11-02T13:40:55.058Z,17.67
2022-11-02T13:44:26.790Z,17.38
2022-11-02T13:47:14.507Z,17.14
2022-11-02T13:49:48.371Z,17.02
2022-11-02T13:52:24.400Z,17.11
2022-11-02T13:57:38.617Z,17.09
2022-11-02T14:00:31.958Z,17.19
2022-11-02T14:03:12.313Z,17.20
2022-11-02T14:05:49.485Z,17.18
2022-11-02T14:08:31.456Z,17.74
2022-11-02T14:11:21.648Z,18.14
2022-11-02T14:14:29.300Z,18.20
2022-11-02T14:17:13.560Z,17.79
2022-11-02T14:20:06.657Z,17.54
2022-11-02T14:22:40.228Z,17.36
2022-11-02T14:25:22.329Z,17.47
2022-11-02T14:27:54.930Z,17.78
2022-11-02T14:30:46.474Z,18.13
2022-11-02T14:33:51.745Z,17.74
2022-11-02T14:36:44.282Z,17.47
2022-11-02T14:39:27.631Z,17.25
2022-11-02T14:42:26.783Z,17.08
2022-11-02T14:45:27.645Z,17.00
2022-11-02T14:48:02.750Z,16.81
2022-11-02T14:50:34.017Z,16.52
2022-11-02T14:53:07.423Z,16.37
2022-11-02T14:55:38.251Z,16.41
2022-11-02T14:58:15.938Z,16.25
2022-11-02T15:00:59.623Z,16.16
2022-11-02T15:03:35.727Z,16.12
2022-11-02T15:06:14.670Z,16.14
2022-11-02T15:08:54.346Z,15.93
2022-11-02T15:11:47.636Z,15.91
2022-11-02T15:14:50.546Z,15.93
2022-11-02T15:18:25.052Z,15.78
2022-11-02T15:21:30.874Z,15.77
2022-11-02T15:24:17.213Z,15.66
2022-11-02T15:26:52.135Z,15.59
2022-11-02T15:29:36.734Z,15.49
2022-11-02T15:32:12.799Z,15.48
2022-11-02T15:34:46.126Z,15.36
2022-11-02T15:37:22.304Z,15.21
2022-11-02T15:39:51.906Z,15.05
2022-11-02T15:42:38.312Z,14.97
2022-11-02T15:45:47.751Z,14.96
2022-11-02T15:48:41.431Z,14.75
2022-11-02T15:51:24.305Z,14.69
2022-11-02T15:54:20.116Z,14.58
2022-11-02T15:57:06.367Z,14.55
2022-11-02T16:00:06.970Z,14.37
2022-11-02T16:02:42.250Z,14.25
2022-11-02T16:05:20.838Z,14.18
2022-11-02T16:08:10.097Z,14.10
2022-11-02T16:10:40.341Z,13.97
2022-11-02T16:13:16.924Z,13.88
2022-11-02T16:15:46.951Z,13.88
2022-11-02T16:18:26.690Z,13.79
2022-11-02T16:20:59.460Z,13.72
2022-11-02T16:23:31.592Z,13.62
2022-11-02T16:26:04.292Z,13.48
2022-11-02T16:28:34.271Z,13.46
2022-11-02T16:31:18.393Z,13.40
2022-11-02T16:33:50.833Z,13.35
2022-11-02T16:36:21.769Z,13.23
2022-11-02T16:39:00.291Z,13.14
2022-11-02T16:41:34.090Z,13.09
2022-11-02T16:44:09.647Z,13.04
2022-11-02T16:46:47.235Z,12.90
2022-11-02T16:49:18.734Z,12.83
2022-11-02T16:51:51.824Z,12.82
2022-11-02T16:54:29.306Z,12.73
2022-11-02T16:57:08.762Z,12.66
2022-11-02T16:59:52.347Z,12.60
2022-11-02T17:02:33.572Z,12.58
2022-11-02T17:05:06.317Z,12.51
2022-11-02T17:07:40.669Z,12.39
2022-11-02T17:10:19.707Z,12.45
2022-11-02T17:12:50.404Z,12.41
2022-11-02T17:15:22.251Z,12.36
2022-11-02T17:17:50.294Z,12.32
2022-11-02T17:20:24.084Z,12.27
2022-11-02T17:22:58.880Z,12.26
2022-11-02T17:25:30.182Z,12.24
2022-11-02T17:28:02.745Z,12.21
2022-11-02T17:30:46.063Z,12.17
2022-11-02T17:33:24.934Z,12.10
2022-11-02T17:35:55.772Z,12.07
2022-11-02T17:38:27.439Z,12.09
2022-11-02T17:40:56.280Z,12.06
2022-11-02T17:43:25.411Z,12.00
2022-11-02T17:45:58.397Z,11.95
2022-11-02T17:48:28.811Z,11.97
2022-11-02T17:51:01.943Z,11.99
2022-11-02T17:53:29.690Z,11.97
2022-11-02T17:55:57.653Z,11.92
2022-11-02T17:58:26.803Z,11.89
2022-11-02T18:00:55.330Z,11.85
2022-11-02T18:03:29.931Z,11.82
2022-11-02T18:06:00.203Z,11.82
2022-11-02T18:08:29.070Z,11.85
2022-11-02T18:10:57.053Z,11.80
2022-11-02T18:13:26.303Z,11.81
2022-11-02T18:15:54.183Z,11.85
2022-11-02T18:18:22.030Z,11.86
2022-11-02T18:20:49.860Z,11.90
2022-11-02T18:23:19.704Z,11.90
2022-11-02T18:25:47.831Z,11.90
2022-11-02T18:28:15.893Z,11.88
2022-11-02T18:30:45.174Z,11.83
2022-11-02T18:33:14.517Z,11.79
2022-11-02T18:35:42.649Z,11.72
2022-11-02T18:38:17.940Z,11.67
2022-11-02T18:40:45.756Z,11.62
2022-11-02T18:43:13.569Z,11.56
2022-11-02T18:45:41.960Z,11.53
2022-11-02T18:48:11.078Z,11.68
2022-11-02T18:50:38.848Z,11.70
2022-11-02T18:53:06.560Z,11.71
2022-11-02T18:55:34.375Z,11.70
2022-11-02T18:58:02.331Z,11.66
2022-11-02T19:00:30.293Z,11.60
2022-11-02T19:02:58.027Z,11.66
2022-11-02T19:05:46.265Z,11.58
2022-11-02T19:08:32.420Z,11.54
2022-11-02T19:11:00.179Z,11.56
2022-11-02T19:13:27.964Z,11.56
2022-11-02T19:15:55.839Z,11.58
2022-11-02T19:18:23.605Z,11.55
2022-11-02T19:20:52.708Z,11.55
2022-11-02T19:23:20.936Z,11.55
2022-11-02T19:25:53.176Z,11.52
2022-11-02T19:28:20.963Z,11.54
2022-11-02T19:30:49.363Z,11.53
2022-11-02T19:33:17.298Z,11.59
2022-11-02T19:35:55.719Z,11.57
2022-11-02T19:38:23.607Z,11.58
2022-11-02T19:41:00.733Z,11.56
2022-11-02T19:43:29.324Z,11.51
2022-11-02T19:46:01.806Z,11.48
2022-11-02T19:48:31.626Z,11.43
2022-11-02T19:51:13.333Z,11.46
2022-11-02T19:53:46.882Z,11.45
2022-11-02T19:56:16.916Z,11.43
2022-11-02T19:58:49.250Z,11.43
2022-11-02T20:01:23.588Z,11.43
2022-11-02T20:03:52.903Z,11.40
2022-11-02T20:06:25.332Z,11.36
2022-11-02T20:08:55.635Z,11.36
2022-11-02T20:11:27.298Z,11.33
2022-11-02T20:13:58.127Z,11.32
2022-11-02T20:16:26.610Z,11.30
2022-11-02T20:18:56.384Z,11.35
2022-11-02T20:21:32.325Z,11.32
2022-11-02T20:24:03.906Z,11.41
2022-11-02T20:26:35.090Z,11.36
2022-11-02T20:29:06.137Z,11.41
2022-11-02T20:31:38.842Z,11.50
2022-11-02T20:34:08.500Z,11.51
2022-11-02T20:36:39.270Z,11.55
2022-11-02T20:39:07.811Z,11.56
2022-11-02T20:41:36.383Z,11.64
2022-11-02T20:44:04.564Z,11.65
2022-11-02T20:46:41.925Z,11.68
2022-11-02T20:49:20.677Z,11.69
2022-11-02T20:51:52.111Z,11.70
2022-11-02T20:54:20.367Z,11.78
2022-11-02T20:56:50.668Z,11.83
2022-11-02T20:59:18.802Z,11.90
2022-11-02T21:01:47.198Z,11.91
2022-11-02T21:04:20.388Z,11.85
2022-11-02T21:06:50.953Z,11.93
2022-11-02T21:09:19.447Z,11.93
2022-11-02T21:12:06.344Z,11.91
2022-11-02T21:14:34.086Z,11.89
2022-11-02T21:17:04.423Z,11.89
2022-11-02T21:19:32.307Z,11.89
2022-11-02T21:22:01.663Z,11.86
2022-11-02T21:24:29.640Z,11.86
2022-11-02T21:26:57.668Z,11.87
2022-11-02T21:29:28.079Z,11.89
2022-11-02T21:31:55.938Z,11.91
2022-11-02T21:34:25.323Z,11.90
2022-11-02T21:36:53.921Z,11.89
2022-11-02T21:39:23.118Z,11.94
2022-11-02T21:41:51.293Z,11.93
2022-11-02T21:44:19.113Z,11.95
2022-11-02T21:46:47.057Z,11.96
2022-11-02T21:49:14.914Z,12.00
2022-11-02T21:51:42.908Z,11.95
2022-11-02T21:54:11.894Z,11.96
2022-11-02T21:56:42.905Z,11.96
2022-11-02T21:59:10.700Z,11.94
2022-11-02T22:01:49.451Z,11.94
2022-11-02T22:04:21.376Z,11.89
2022-11-02T22:06:50.850Z,11.85
2022-11-02T22:09:18.897Z,11.87
2022-11-02T22:12:08.337Z,11.81
2022-11-02T22:14:36.181Z,11.81
2022-11-02T22:17:16.054Z,11.82
2022-11-02T22:19:50.633Z,11.79
2022-11-02T22:22:19.735Z,11.82
2022-11-02T22:24:48.369Z,11.79
2022-11-02T22:27:18.037Z,11.83
2022-11-02T22:29:46.100Z,11.79
2022-11-02T22:32:14.610Z,11.79
2022-11-02T22:34:43.701Z,11.76
2022-11-02T22:37:29.991Z,11.73
2022-11-02T22:39:57.850Z,11.75
2022-11-02T22:42:27.113Z,11.70
2022-11-02T22:44:58.254Z,11.67
2022-11-02T22:47:26.342Z,11.68
2022-11-02T22:49:54.097Z,11.65
2022-11-02T22:52:21.845Z,11.62
2022-11-02T22:54:50.121Z,11.66
2022-11-02T22:57:17.936Z,11.62
2022-11-02T22:59:46.991Z,11.64
2022-11-02T23:02:14.853Z,11.66
2022-11-02T23:04:42.694Z,11.67
2022-11-02T23:07:10.718Z,11.68
2022-11-02T23:09:38.517Z,11.69
2022-11-02T23:12:06.836Z,11.72
2022-11-02T23:14:34.593Z,11.73
2022-11-02T23:17:03.713Z,11.67
2022-11-02T23:19:32.913Z,11.65
2022-11-02T23:22:24.127Z,11.70
2022-11-02T23:25:17.775Z,11.67
2022-11-02T23:28:16.299Z,11.73
2022-11-02T23:31:03.034Z,11.71
2022-11-02T23:33:36.345Z,11.73
2022-11-02T23:36:11.129Z,11.73
2022-11-02T23:38:58.820Z,11.77
2022-11-02T23:41:28.210Z,11.72
2022-11-02T23:44:11.589Z,11.74
2022-11-02T23:46:41.700Z,11.76
2022-11-02T23:49:11.403Z,11.80
2022-11-02T23:51:58.099Z,11.85
2022-11-02T23:54:44.414Z,11.80
2022-11-02T23:57:12.726Z,11.81
2022-11-02T23:59:40.602Z,11.85
